Terminal Aerodrome Forecast
Issued by NWS

Home | Current Version | Previous Version | Text Only | Print | Product List | Glossary On
Versions: 1 2 3 4 5 6 7 8 9 10 11 12 13 14 15 16 17 18 19 20 21 22 23 24 25 26 27 28 29
000
FTAK31 PANC 171132
TAFATK
TAF
PATK 171132Z 1712/1812 19007KT 6SM -SN OVC045
      TEMPO 1712/1716 2SM -SN BR OVC030
     FM171800 01004KT P6SM SCT045 BKN070
     FM172100 02005KT P6SM SKC=

USA.gov is the U.S. government's official web portal to all federal, state and local government web resources and services.